Record high temperature 35.8°C Record low temperature -23.5°C Record high gust 79.6 km/h Record high average 153.6 km/h Record daily rain 37.0 mm Record low windchill -31.0°C Record high barometer 1039.3 hPa Record low barometer 980.3 hPa
Daily high pressure 1009.2 hPa Daily low pressure 1006.0 hPa Daily low windchill -4.0°C Daily high heat index 4.9°C Daily high gust speed 29.6 kmh O Daily high average speed 14.8 kmh OSO
Wetterdaten
LETZTE AKTUALISIERUNG UM: 19:15 DATUM: November 20 2018, time of next update: 19:30
Aktuelles Wettermostly clear/Night Aktuelle Temperatur -1.2°C (29.8°F), Apparent temp -3.0°C
Höchsttemperatur (seit Mitternacht)4.9°C um: 14:16 Tiefsttemperatur (seit Mitternacht)-1.2°C um: 19:03
Windgeschwindigkeit (10 Minuten )0.0 kmh (0.0 kts) Windrichtung (Dir) (10 Minuten )E (90°)
Windchill Temperatur -1.2°C Windspitzen (letzte Std)5.1 kmh (2.7 kts) um: 18:31
Windspitzen (seit Mitternacht)29.6 kmh (16.0 kts) um: 02:05 Höchstes Windmittel / Minute (seit Mitternacht)14.8 kmh (8.0 kts) um: 00:00
Regenmenge (letzte Std)0.0 mm Regenmenge (seit Mitternacht)0.0 mm (0.00 in.)---
Regenmenge diesen Monat 5.4 mm (0.21 in.) Regenmenge seit Jahresbeginn 401.4 mm (15.80 in.)
Höchste Regenmenge pro Minute (letzte Std)0.0 mm/min Höchste Regenmenge pro Stunde (letzte 6 Std)0.0 mm/stunde
Regenmenge Gestern 0.0 mm Taupunkt -3.1°C (Wet Bulb :-1.9°C )
Luftfeuchtigkeit 87 %, Humidex -4.1°C Aktueller Luftdruck (auf Meereshöhe bezogen)1009.1 hPa
Luftdrucktendenz +0.6 hPa (letzte Std) Trend (letzte 1 Std)leicht steigend
Luftdrucktendenz (letzte 12 Std)+2.5 hPa Luftdrucktendenz (letzte 6 Std)+2.8 hPa
Maximum Soil temperature (seit Mitternacht) 4.4°C Minimum Soil temperature(seit Mitternacht)3.9°C
Current Soil temperature 4°C
Current Solar 0 W/m²
Maximum solar (seit Mitternacht) 134 W/m² Minimum solar(seit Mitternacht)0 W/m²
Current 01:04 hours of sunshine today, current sky: Nicht bestimmbar (Nachtzeit)/Dry/A few clouds
Sunshine hours for the year: 1383:01 hrs Sunshine hours for the month: 48:35 hrs
Current evapotranspiration rate 0.5 mm per day. Yesterday's reading 0.8

Diese Seite wurde mit aktuellen Daten einer DAVIS VP Wetterstation erstellt. Drücken Sie bitte auf "Aktualisieren" oder "neu laden" um die neuesten Daten zu erhalten.


Animated web cam image


Weather report/warning/Metars

Stuttgart-Echterdingen, Germany (EDDS) 48-41N 009-13E 391M
Nov 20, 2018 - 12:50 PM EST / 2018.11.20 1750 UTC
Wind: from the SSW (210 degrees) at 3 MPH (3 KT) (direction variable):0
Visibility: greater than 7 mile(s):0
Sky conditions: mostly clear
Temperature: 33 F (1 C)
Dew Point: 30 F (-1 C)
Relative Humidity: 86%
Pressure (altimeter): 29.74 in. Hg (1007 hPa)
ob: EDDS 201750Z 21003KT 180V240 9999 FEW023 01/M01 Q1007 NOSIG
cycle: 18
Augsburg, Germany (EDMA) 48-26N 010-56E 463M
Nov 20, 2018 - 12:50 PM EST / 2018.11.20 1750 UTC
Wind: from the ENE (070 degrees) at 5 MPH (4 KT):0
Visibility: greater than 7 mile(s):0
Temperature: 30 F (-1 C)
Windchill: 24 F (-4 C):1
Dew Point: 28 F (-2 C)
Relative Humidity: 92%
Pressure (altimeter): 29.74 in. Hg (1007 hPa)
ob: EDMA 201750Z 07004KT CAVOK M01/M02 Q1007
cycle: 18
Nuernberg, Germany (EDDN) 49-30N 011-03E 318M
Nov 20, 2018 - 12:50 PM EST / 2018.11.20 1750 UTC
Wind: from the E (080 degrees) at 6 MPH (5 KT):0
Visibility: greater than 7 mile(s):0
Temperature: 33 F (1 C)
Windchill: 26 F (-3 C):1
Dew Point: 30 F (-1 C)
Relative Humidity: 86%
Pressure (altimeter): 29.80 in. Hg (1009 hPa)
ob: EDDN 201750Z 08005KT CAVOK 01/M01 Q1009 NOSIG
cycle: 18
Berlin-Tegel, Germany (EDDT) 52-34N 013-19E 37M
Nov 20, 2018 - 12:50 PM EST / 2018.11.20 1750 UTC
Wind: from the E (090 degrees) at 14 MPH (12 KT) gusting to 25 MPH (22 KT) (direction variable):0
Visibility: greater than 7 mile(s):0
Sky conditions: mostly cloudy
Temperature: 35 F (2 C)
Windchill: 26 F (-3 C):1
Dew Point: 28 F (-2 C)
Relative Humidity: 74%
Pressure (altimeter): 30.03 in. Hg (1017 hPa)
ob: EDDT 201750Z 09012G22KT 060V120 9999 BKN021 02/M02 Q1017 NOSIG
cycle: 18
Friedrichshafen, Germany (EDNY) 47-40N 009-31E 424M
Nov 20, 2018 - 12:50 PM EST / 2018.11.20 1750 UTC
Wind: Variable at 1 MPH (1 KT):0
Visibility: 4 mile(s):0
Temperature: 28 F (-2 C)
Dew Point: 26 F (-3 C)
Relative Humidity: 92%
Pressure (altimeter): 29.74 in. Hg (1007 hPa)
ob: EDNY 201750Z VRB01KT 8000 NSC M02/M03 Q1007
cycle: 18
Hamburg-Finkenwerder, Germany (EDHI) 53-32N 009-50E 13M
Nov 20, 2018 - 12:50 PM EST / 2018.11.20 1750 UTC
Wind: from the E (090 degrees) at 17 MPH (15 KT) gusting to 31 MPH (27 KT) (direction variable):0
Visibility: greater than 7 mile(s):0
Sky conditions: mostly cloudy
Temperature: 37 F (3 C)
Dew Point: 30 F (-1 C)
Relative Humidity: 74%
Pressure (altimeter): 30.00 in. Hg (1016 hPa)
ob: EDHI 201750Z 09015G27KT 060V170 9999 BKN022 03/M01 Q1016
cycle: 18



Die Wetterdaten werden alle 2 Minuten gespeichert, aber die Datenübertragung findet jede Minute statt. Die beste Ansicht wird in einer Auflösung von 800 x 600 und "True colour" erzielt. Linie zeigt die relative Luftfeuchtigkeit an.

Drücken Sie bitte auf "Aktualisieren" in Ihrem Browser, um die aktuellsten Daten zu erhalten.

Klicken Sie hier, um eine Übersicht der Durchschnitts- u. Extremwerte für den Monat zu erhalten
Created by "Weather Display" software version 10.37S at this start time/date 12:43:03 19.11.2018